Luhe — 3FVZ6 — position and weather

sailwx.info

Track history (hours):
 
Tides and Currents Weather Stations Pressure Air Temp Water Temp Dewpoint Dewpoint Depression Visibility Wind Speed Wind Dir Waves Ship Positions

Luhe

Last reported at 2014-Sep-17 15:24 UTC. Time now 2014-Sep-20 01:59 UTC.
Position S 24°18' E 154°11'.

Length 280 m; draft 11.5 m.

Type: Cargo ship. MMSI: 354812000.

Date/timePositionNaut miles runAvg speedWind from/ knotsBaromVisibWave heightAir tempDewpointWater temp
2014-Sep-17 15:24S 24°18' E 154°11'4616.0
2014-Sep-17 12:33S 25°02' E 153°58'1515.4
2014-Sep-17 11:34S 25°16' E 153°52'1615.9
2014-Sep-17 10:33S 25°30' E 153°45'1515.1
2014-Sep-17 09:33S 25°44' E 153°39'1615.8
2014-Sep-17 08:33S 25°59' E 153°32'1816.1
2014-Sep-17 07:24S 26°16' E 153°24'1416.0
2014-Sep-17 06:31S 26°29' E 153°18'1515.4
2014-Sep-17 05:33S 26°43' E 153°11'1212.3
2014-Sep-17 04:34S 26°55' E 153°12'1514.9
2014-Sep-17 03:34S 27°07' E 153°21'1413.9
2014-Sep-17 02:33S 27°19' E 153°12'3 3.1
2014-Sep-17 01:32S 27°22' E 153°11'0 0.0
2014-Sep-17 00:32S 27°22' E 153°11'0 0.0
2014-Sep-16 23:32S 27°22' E 153°11'0 0.0
2014-Sep-16 22:32S 27°22' E 153°11'0 0.0
2014-Sep-16 21:32S 27°22' E 153°11'0 0.0
2014-Sep-16 20:32S 27°22' E 153°11'0 0.0
2014-Sep-16 19:32S 27°22' E 153°11'0 0.0
2014-Sep-16 18:32S 27°22' E 153°11'0 0.0
2014-Sep-16 17:32S 27°22' E 153°11'0 0.0
2014-Sep-16 16:32S 27°22' E 153°11'0 0.0
2014-Sep-16 15:32S 27°22' E 153°11'0 0.0
2014-Sep-16 14:32S 27°22' E 153°11'0 0.0
2014-Sep-16 13:32S 27°22' E 153°11'0 0.0
2014-Sep-16 12:32S 27°22' E 153°11'0 0.0
2014-Sep-16 11:32S 27°22' E 153°11'0 0.0
2014-Sep-16 10:32S 27°22' E 153°11'0 0.0
2014-Sep-16 09:32S 27°22' E 153°11'0 0.0
2014-Sep-16 08:32S 27°22' E 153°11'0 0.0
2014-Sep-16 07:32S 27°22' E 153°11'0 0.0
2014-Sep-16 06:32S 27°22' E 153°11'0 0.0
2014-Sep-16 05:32S 27°22' E 153°11'0 0.0
2014-Sep-16 04:32S 27°22' E 153°11'0 0.0
2014-Sep-16 03:32S 27°22' E 153°11'0 0.0
2014-Sep-16 02:32S 27°22' E 153°11'0 0.0
2014-Sep-16 01:32S 27°22' E 153°11'5 5.2
2014-Sep-16 00:33S 27°18' E 153°13'1212.2
2014-Sep-15 23:34S 27°07' E 153°21'1615.7
2014-Sep-15 22:34S 26°54' E 153°11'10 9.6
2014-Sep-15 21:33S 26°45' E 153°13'8 8.5
2014-Sep-15 20:33S 26°49' E 153°21'1413.7
2014-Sep-15 19:33S 26°56' E 153°34'1312.7
2014-Sep-15 18:33S 27°09' E 153°38'1313.1
2014-Sep-15 17:33S 27°22' E 153°40'1413.6
2014-Sep-15 16:33S 27°35' E 153°42'1313.4
2014-Sep-15 15:33S 27°49' E 153°43'1413.8
2014-Sep-15 14:33S 28°02' E 153°45'1414.0
2014-Sep-15 13:33S 28°16' E 153°45'1414.0
2014-Sep-15 12:33S 28°30' E 153°45'1413.7
2014-Sep-15 11:33S 28°44' E 153°45'23216.5
2014-Sep-14 21:33S 32°30' E 152°49'1816.9
2014-Sep-14 20:29S 32°47' E 152°41'1516.5
2014-Sep-14 19:33S 33°01' E 152°34'1615.9
2014-Sep-14 18:34S 33°16' E 152°26'25416.9
2014-Sep-14 03:32S 37°08' E 150°21'1717.5
2014-Sep-14 02:33S 37°24' E 150°13'1817.8
2014-Sep-14 01:33S 37°40' E 150°03'7417.7
2014-Sep-13 21:22S 38°27' E 148°50'1417.6
2014-Sep-13 20:33S 38°35' E 148°36'2317.9
2014-Sep-13 19:17S 38°48' E 148°12'3518.1
2014-Sep-13 17:21S 39°00' E 147°29'1417.4
2014-Sep-13 16:33S 39°05' E 147°13'1717.0
2014-Sep-13 15:33S 39°11' E 146°52'1717.0
2014-Sep-13 14:33S 39°16' E 146°31'1716.5
2014-Sep-13 13:33S 39°15' E 146°10'1817.6
2014-Sep-13 12:33S 39°05' E 145°51'1817.6
2014-Sep-13 11:33S 38°55' E 145°32'  
2014-Sep-10 21:29S 38°56' E 145°41'1415.1
2014-Sep-10 20:33S 39°04' E 145°56'1514.8
2014-Sep-10 19:33S 39°11' E 146°13'1414.1
2014-Sep-10 18:34S 39°09' E 146°31'1515.1
2014-Sep-10 17:34S 39°04' E 146°49'1515.2
2014-Sep-10 16:34S 38°59' E 147°08'1616.0
2014-Sep-10 15:33S 38°54' E 147°28'1716.6
2014-Sep-10 14:33S 38°49' E 147°48'1817.7
2014-Sep-10 13:33S 38°44' E 148°10'1717.7
2014-Sep-10 12:33S 38°36' E 148°30'1717.4
2014-Sep-10 11:34S 38°27' E 148°49'5217.1
2014-Sep-10 08:31S 37°56' E 149°41'1616.8
2014-Sep-10 07:33S 37°46' E 149°57'1716.4
2014-Sep-10 06:32S 37°31' E 150°07'1616.4
2014-Sep-10 05:33S 37°16' E 150°14'19417.7
2014-Sep-09 18:34S 34°08' E 151°17'  
Track history (hours):
 
Tides and Currents Weather Stations Pressure Air Temp Water Temp Dewpoint Dewpoint Depression Visibility Wind Speed Wind Dir Waves Ship Positions

Luhe

Last reported at 2014-Sep-17 15:24 UTC. Time now 2014-Sep-20 01:59 UTC.
Position S 24°18' E 154°11'.

Length 280 m; draft 11.5 m.

Type: Cargo ship. MMSI: 354812000.

Date/timePositionNaut miles runAvg speedWind from/ knotsBaromVisibWave heightAir tempDewpointWater temp
2014-Sep-17 15:24S 24°18' E 154°11'4616.0
2014-Sep-17 12:33S 25°02' E 153°58'1515.4
2014-Sep-17 11:34S 25°16' E 153°52'1615.9
2014-Sep-17 10:33S 25°30' E 153°45'1515.1
2014-Sep-17 09:33S 25°44' E 153°39'1615.8
2014-Sep-17 08:33S 25°59' E 153°32'1816.1
2014-Sep-17 07:24S 26°16' E 153°24'1416.0
2014-Sep-17 06:31S 26°29' E 153°18'1515.4
2014-Sep-17 05:33S 26°43' E 153°11'1212.3
2014-Sep-17 04:34S 26°55' E 153°12'1514.9
2014-Sep-17 03:34S 27°07' E 153°21'1413.9
2014-Sep-17 02:33S 27°19' E 153°12'3 3.1
2014-Sep-17 01:32S 27°22' E 153°11'0 0.0
2014-Sep-17 00:32S 27°22' E 153°11'0 0.0
2014-Sep-16 23:32S 27°22' E 153°11'0 0.0
2014-Sep-16 22:32S 27°22' E 153°11'0 0.0
2014-Sep-16 21:32S 27°22' E 153°11'0 0.0
2014-Sep-16 20:32S 27°22' E 153°11'0 0.0
2014-Sep-16 19:32S 27°22' E 153°11'0 0.0
2014-Sep-16 18:32S 27°22' E 153°11'0 0.0
2014-Sep-16 17:32S 27°22' E 153°11'0 0.0
2014-Sep-16 16:32S 27°22' E 153°11'0 0.0
2014-Sep-16 15:32S 27°22' E 153°11'0 0.0
2014-Sep-16 14:32S 27°22' E 153°11'0 0.0
2014-Sep-16 13:32S 27°22' E 153°11'0 0.0
2014-Sep-16 12:32S 27°22' E 153°11'0 0.0
2014-Sep-16 11:32S 27°22' E 153°11'0 0.0
2014-Sep-16 10:32S 27°22' E 153°11'0 0.0
2014-Sep-16 09:32S 27°22' E 153°11'0 0.0
2014-Sep-16 08:32S 27°22' E 153°11'0 0.0
2014-Sep-16 07:32S 27°22' E 153°11'0 0.0
2014-Sep-16 06:32S 27°22' E 153°11'0 0.0
2014-Sep-16 05:32S 27°22' E 153°11'0 0.0
2014-Sep-16 04:32S 27°22' E 153°11'0 0.0
2014-Sep-16 03:32S 27°22' E 153°11'0 0.0
2014-Sep-16 02:32S 27°22' E 153°11'0 0.0
2014-Sep-16 01:32S 27°22' E 153°11'5 5.2
2014-Sep-16 00:33S 27°18' E 153°13'1212.2
2014-Sep-15 23:34S 27°07' E 153°21'1615.7
2014-Sep-15 22:34S 26°54' E 153°11'10 9.6
2014-Sep-15 21:33S 26°45' E 153°13'8 8.5
2014-Sep-15 20:33S 26°49' E 153°21'1413.7
2014-Sep-15 19:33S 26°56' E 153°34'1312.7
2014-Sep-15 18:33S 27°09' E 153°38'1313.1
2014-Sep-15 17:33S 27°22' E 153°40'1413.6
2014-Sep-15 16:33S 27°35' E 153°42'1313.4
2014-Sep-15 15:33S 27°49' E 153°43'1413.8
2014-Sep-15 14:33S 28°02' E 153°45'1414.0
2014-Sep-15 13:33S 28°16' E 153°45'1414.0
2014-Sep-15 12:33S 28°30' E 153°45'1413.7
2014-Sep-15 11:33S 28°44' E 153°45'23216.5
2014-Sep-14 21:33S 32°30' E 152°49'1816.9
2014-Sep-14 20:29S 32°47' E 152°41'1516.5
2014-Sep-14 19:33S 33°01' E 152°34'1615.9
2014-Sep-14 18:34S 33°16' E 152°26'25416.9
2014-Sep-14 03:32S 37°08' E 150°21'1717.5
2014-Sep-14 02:33S 37°24' E 150°13'1817.8
2014-Sep-14 01:33S 37°40' E 150°03'7417.7
2014-Sep-13 21:22S 38°27' E 148°50'1417.6
2014-Sep-13 20:33S 38°35' E 148°36'2317.9
2014-Sep-13 19:17S 38°48' E 148°12'3518.1
2014-Sep-13 17:21S 39°00' E 147°29'1417.4
2014-Sep-13 16:33S 39°05' E 147°13'1717.0
2014-Sep-13 15:33S 39°11' E 146°52'1717.0
2014-Sep-13 14:33S 39°16' E 146°31'1716.5
2014-Sep-13 13:33S 39°15' E 146°10'1817.6
2014-Sep-13 12:33S 39°05' E 145°51'1817.6
2014-Sep-13 11:33S 38°55' E 145°32'  
2014-Sep-10 21:29S 38°56' E 145°41'1415.1
2014-Sep-10 20:33S 39°04' E 145°56'1514.8
2014-Sep-10 19:33S 39°11' E 146°13'1414.1
2014-Sep-10 18:34S 39°09' E 146°31'1515.1
2014-Sep-10 17:34S 39°04' E 146°49'1515.2
2014-Sep-10 16:34S 38°59' E 147°08'1616.0
2014-Sep-10 15:33S 38°54' E 147°28'1716.6
2014-Sep-10 14:33S 38°49' E 147°48'1817.7
2014-Sep-10 13:33S 38°44' E 148°10'1717.7
2014-Sep-10 12:33S 38°36' E 148°30'1717.4
2014-Sep-10 11:34S 38°27' E 148°49'5217.1
2014-Sep-10 08:31S 37°56' E 149°41'1616.8
2014-Sep-10 07:33S 37°46' E 149°57'1716.4
2014-Sep-10 06:32S 37°31' E 150°07'1616.4
2014-Sep-10 05:33S 37°16' E 150°14'19417.7
2014-Sep-09 18:34S 34°08' E 151°17'  

Dump ship's entire track history